Time;durP1;ratioP1;P1;durP2;ratioP2;P2;SDS_P1;SDS_P2;PMS_P1;PMS_P2;Temp;Humidity;BMP_temperature;BMP_pressure;BME280_temperature;BME280_humidity;BME280_pressure;Samples;Min_cycle;Max_cycle;Signal;HPM_P1;HPM_P2
2024/01/27 00:01:17;;;;;;;16.52;2.25;;;5.20;99.90;;;8.29;100.00;102179.97;5012703;28;20038;-77
2024/01/27 00:03:43;;;;;;;15.73;2.67;;;5.20;99.90;;;8.43;100.00;102186.66;5030510;28;20045;-76
2024/01/27 00:06:08;;;;;;;15.50;2.22;;;5.00;99.90;;;8.02;100.00;102191.94;5013434;28;20033;-76
2024/01/27 00:08:34;;;;;;;17.02;2.80;;;5.10;99.90;;;8.02;100.00;102195.50;5029350;28;20110;-76
2024/01/27 00:11:00;;;;;;;15.65;2.10;;;5.20;99.90;;;8.18;100.00;102186.56;5012124;28;20045;-76
2024/01/27 00:13:25;;;;;;;17.02;2.65;;;5.10;99.90;;;8.13;100.00;102199.78;5045359;28;20041;-77
2024/01/27 00:15:51;;;;;;;12.60;2.30;;;5.10;99.90;;;7.89;100.00;102209.50;5030095;28;20415;-77
2024/01/27 00:18:17;;;;;;;19.73;2.85;;;5.20;99.90;;;7.63;100.00;102215.78;5029471;28;20036;-77
2024/01/27 00:20:43;;;;;;;16.45;2.67;;;5.20;99.90;;;8.15;100.00;102224.94;5029161;28;20143;-77
2024/01/27 00:23:09;;;;;;;13.52;2.80;;;5.20;99.90;;;8.00;100.00;102213.00;5029455;28;20041;-77
2024/01/27 00:25:34;;;;;;;18.35;2.65;;;5.20;99.90;;;8.36;100.00;102210.09;5030150;28;20041;-77
2024/01/27 00:28:00;;;;;;;20.95;2.50;;;5.20;99.90;;;8.04;100.00;102189.91;5030265;28;20491;-77
2024/01/27 00:30:26;;;;;;;13.18;2.10;;;5.20;99.90;;;8.15;100.00;102205.06;5044523;28;20053;-77
2024/01/27 00:32:52;;;;;;;18.33;2.92;;;5.20;99.90;;;8.12;100.00;102208.13;5044968;28;20037;-77
2024/01/27 00:35:17;;;;;;;15.98;3.47;;;5.20;99.90;;;8.31;100.00;102218.72;5028987;28;20029;-77
2024/01/27 00:37:43;;;;;;;19.10;2.67;;;5.20;99.90;;;7.72;100.00;102216.72;5029057;28;20040;-77
2024/01/27 00:40:10;;;;;;;21.13;2.97;;;5.20;99.90;;;8.37;100.00;102214.50;5030158;28;20552;-77
2024/01/27 00:42:37;;;;;;;20.98;3.35;;;5.20;99.90;;;7.91;100.00;102207.47;5030144;28;20025;-78
2024/01/27 00:45:05;;;;;;;21.45;3.33;;;5.20;99.90;;;7.81;100.00;102204.03;5012348;28;20041;-77
2024/01/27 00:47:31;;;;;;;15.45;2.40;;;5.30;99.90;;;8.61;100.00;102218.38;5011437;28;20095;-78
2024/01/27 00:49:57;;;;;;;18.50;3.03;;;5.30;99.90;;;8.44;100.00;102217.44;5044222;28;20041;-78
2024/01/27 00:52:22;;;;;;;23.40;2.50;;;5.30;99.90;;;8.38;100.00;102228.97;5029380;28;20056;-78
2024/01/27 00:54:48;;;;;;;17.08;3.33;;;5.30;99.90;;;8.26;100.00;102231.97;5028998;28;20547;-78
2024/01/27 00:57:14;;;;;;;15.38;2.65;;;5.40;99.90;;;8.67;100.00;102228.59;5012345;28;20034;-78
2024/01/27 00:59:40;;;;;;;14.50;2.28;;;5.30;99.90;;;9.01;100.00;102221.34;5027917;28;20536;-77
2024/01/27 01:02:07;;;;;;;16.02;2.35;;;5.40;99.90;;;8.40;100.00;102235.94;5011367;28;20052;-77
2024/01/27 01:04:33;;;;;;;13.80;2.70;;;5.40;99.90;;;8.35;100.00;102236.44;5029285;28;21272;-78
2024/01/27 01:06:59;;;;;;;10.40;2.13;;;5.40;99.90;;;8.65;100.00;102241.50;5029324;28;20037;-78
2024/01/27 01:09:25;;;;;;;20.83;3.20;;;5.40;99.90;;;8.04;100.00;102236.09;5029096;28;20041;-79
2024/01/27 01:11:50;;;;;;;21.75;2.90;;;5.40;99.90;;;8.63;100.00;102233.53;5029221;28;20153;-77
2024/01/27 01:14:17;;;;;;;18.48;3.08;;;5.40;99.90;;;8.61;100.00;102242.84;5028909;28;20041;-78
2024/01/27 01:16:42;;;;;;;18.20;2.70;;;5.40;99.90;;;8.41;100.00;102221.31;5011317;28;20327;-77
2024/01/27 01:19:08;;;;;;;26.65;3.30;;;5.40;99.90;;;8.61;100.00;102230.09;5028974;28;20048;-78
2024/01/27 01:21:34;;;;;;;19.15;2.78;;;5.40;99.90;;;8.00;100.00;102237.44;5024901;28;20048;-78
2024/01/27 01:24:00;;;;;;;27.98;3.85;;;5.30;99.90;;;8.37;100.00;102249.03;5029070;28;20064;-78
2024/01/27 01:26:26;;;;;;;18.23;2.60;;;5.30;99.90;;;8.49;100.00;102243.16;5028453;28;20038;-78
2024/01/27 01:28:52;;;;;;;21.00;3.05;;;5.30;99.90;;;8.46;100.00;102235.28;5024314;28;20091;-78
2024/01/27 01:31:17;;;;;;;23.83;3.05;;;5.20;99.90;;;8.03;100.00;102258.88;5028142;28;20034;-78
2024/01/27 01:33:44;;;;;;;21.63;3.38;;;5.20;99.90;;;8.01;100.00;102274.50;5028665;28;20041;-78
2024/01/27 01:36:10;;;;;;;20.65;2.58;;;5.20;99.90;;;8.32;100.00;102269.38;5011406;28;20029;-78
2024/01/27 01:38:36;;;;;;;15.05;2.50;;;5.10;99.90;;;8.20;100.00;102259.81;5028546;28;20463;-78
2024/01/27 01:41:02;;;;;;;17.98;2.50;;;5.00;99.90;;;7.53;100.00;102266.66;5028750;28;20033;-78
2024/01/27 01:43:27;;;;;;;20.45;2.83;;;5.00;99.90;;;8.08;100.00;102270.09;5027987;28;20046;-78
2024/01/27 01:45:53;;;;;;;22.20;3.45;;;5.00;99.90;;;7.55;100.00;102274.63;5043910;28;20049;-78
2024/01/27 01:48:20;;;;;;;20.60;2.50;;;4.90;99.90;;;7.99;100.00;102257.50;5028192;28;20076;-79
2024/01/27 01:50:47;;;;;;;17.45;2.78;;;;;;;7.85;100.00;102272.50;5027141;28;20037;-78
2024/01/27 01:53:13;;;;;;;15.68;2.58;;;4.70;99.90;;;6.91;100.00;102267.44;5028452;28;20045;-79
2024/01/27 01:55:40;;;;;;;13.18;2.55;;;4.50;99.90;;;7.40;100.00;102266.19;5009645;28;20044;-78
2024/01/27 01:58:06;;;;;;;18.75;2.38;;;4.40;99.90;;;7.53;100.00;102263.94;5028418;28;20029;-78
2024/01/27 02:00:32;;;;;;;23.27;2.85;;;4.30;99.90;;;7.26;100.00;102263.03;5022690;28;20068;-78
2024/01/27 02:02:58;;;;;;;19.48;3.00;;;4.20;99.90;;;7.13;100.00;102265.25;5028476;28;20378;-78
2024/01/27 02:05:24;;;;;;;14.07;2.70;;;4.10;99.90;;;7.17;100.00;102262.09;5027621;28;20745;-78
2024/01/27 02:07:51;;;;;;;18.65;3.08;;;4.10;99.90;;;7.39;100.00;102267.19;5008686;28;20049;-78
2024/01/27 02:10:17;;;;;;;22.77;3.10;;;4.10;99.90;;;6.85;100.00;102277.03;5026859;28;20038;-76
2024/01/27 02:12:46;;;;;;;17.67;2.70;;;4.10;99.90;;;7.05;100.00;102260.63;5028220;28;20113;-78
2024/01/27 02:15:13;;;;;;;15.43;2.55;;;4.10;99.90;;;7.29;100.00;102268.16;5028578;28;20039;-78
2024/01/27 02:17:42;;;;;;;17.23;2.63;;;4.10;99.90;;;7.02;100.00;102258.19;5028725;28;20042;-78
2024/01/27 02:20:08;;;;;;;18.52;2.72;;;4.00;99.90;;;7.21;100.00;102259.94;5011858;28;20037;-78
2024/01/27 02:22:35;;;;;;;19.02;2.97;;;4.00;99.90;;;6.98;100.00;102276.66;5028464;28;20041;-78
2024/01/27 02:25:02;;;;;;;17.42;2.97;;;4.00;99.90;;;7.12;100.00;102255.41;5027327;28;20038;-78
2024/01/27 02:27:28;;;;;;;23.05;3.33;;;4.00;99.90;;;7.17;100.00;102255.81;5028368;28;20504;-78
2024/01/27 02:29:54;;;;;;;25.52;3.42;;;4.00;99.90;;;6.96;100.00;102262.41;5028268;28;20040;-78
2024/01/27 02:32:19;;;;;;;22.67;3.42;;;4.00;99.90;;;7.01;100.00;102268.22;5028106;28;20441;-78
2024/01/27 02:34:45;;;;;;;23.30;4.25;;;4.00;99.90;;;6.42;100.00;102270.38;5027639;28;20038;-78
2024/01/27 02:37:12;;;;;;;20.25;3.10;;;4.10;99.90;;;7.04;100.00;102265.19;5025500;28;20042;-78
2024/01/27 02:39:38;;;;;;;16.85;2.90;;;4.00;99.90;;;7.11;100.00;102251.84;5009903;28;20135;-78
2024/01/27 02:42:04;;;;;;;20.17;2.97;;;4.00;99.90;;;6.83;100.00;102259.19;5043280;28;20569;-78
2024/01/27 02:44:29;;;;;;;16.58;2.53;;;4.00;99.90;;;7.28;100.00;102280.00;5027903;28;20515;-78
2024/01/27 02:46:55;;;;;;;14.50;2.28;;;3.90;99.90;;;7.13;100.00;102257.13;5027418;28;20056;-78
2024/01/27 02:49:21;;;;;;;15.98;2.55;;;4.00;99.90;;;7.15;100.00;102288.53;5009645;28;20044;-78
2024/01/27 02:51:47;;;;;;;15.95;2.80;;;3.90;99.90;;;7.12;100.00;102277.13;5029161;28;20041;-78
2024/01/27 02:54:13;;;;;;;17.58;3.35;;;3.90;99.90;;;7.52;100.00;102281.25;5027903;28;20041;-78
2024/01/27 02:56:39;;;;;;;17.23;2.85;;;3.90;99.90;;;7.46;100.00;102284.59;5023538;28;20046;-78
2024/01/27 02:59:04;;;;;;;17.83;2.72;;;3.80;99.90;;;7.37;100.00;102280.09;5025813;28;20030;-78
2024/01/27 03:01:30;;;;;;;33.03;3.08;;;3.80;99.90;;;7.32;100.00;102289.56;5006239;28;20053;-78
2024/01/27 03:03:56;;;;;;;14.73;2.97;;;3.70;99.90;;;7.09;100.00;102299.16;5013897;28;20516;-78
2024/01/27 03:06:21;;;;;;;21.90;2.78;;;3.70;99.90;;;7.20;100.00;102309.81;5030955;28;20041;-77
2024/01/27 03:08:47;;;;;;;27.58;3.30;;;3.70;99.90;;;7.34;100.00;102295.69;5031219;28;20052;-78
2024/01/27 03:11:13;;;;;;;16.80;2.55;;;3.70;99.90;;;7.06;100.00;102316.59;5046545;28;20033;-77
2024/01/27 03:13:44;;;;;;;24.30;2.35;;;3.70;99.90;;;7.28;100.00;102320.75;5031068;28;20029;-76
2024/01/27 03:16:11;;;;;;;22.67;3.25;;;3.70;99.90;;;6.44;100.00;102328.91;5030378;28;20083;-77
2024/01/27 03:18:37;;;;;;;23.25;3.28;;;3.80;99.90;;;7.03;100.00;102320.47;5030039;28;20479;-77
2024/01/27 03:21:05;;;;;;;20.02;3.00;;;3.80;99.90;;;7.05;100.00;102325.75;5030223;28;20037;-77
2024/01/27 03:23:31;;;;;;;21.13;3.05;;;3.80;99.90;;;6.98;100.00;102322.78;5030455;28;20129;-76
2024/01/27 03:25:56;;;;;;;19.95;3.08;;;3.80;99.90;;;7.14;100.00;102323.97;5030906;28;20041;-77
2024/01/27 03:28:22;;;;;;;18.23;2.80;;;3.70;99.90;;;7.20;100.00;102309.81;5030473;28;20049;-76
2024/01/27 03:30:48;;;;;;;23.73;2.97;;;3.70;99.90;;;6.99;100.00;102340.78;5031481;28;20057;-77
2024/01/27 03:33:13;;;;;;;20.00;3.22;;;3.70;99.90;;;6.96;100.00;102341.09;5031439;28;20045;-76
2024/01/27 03:35:39;;;;;;;27.90;3.30;;;3.70;99.90;;;6.89;100.00;102318.25;5024286;28;20049;-77
2024/01/27 03:38:06;;;;;;;22.13;3.13;;;3.70;99.90;;;7.06;100.00;102332.91;5031111;28;20041;-77
2024/01/27 03:40:32;;;;;;;25.10;2.97;;;3.60;99.90;;;7.05;100.00;102326.59;5030862;28;20045;-77
2024/01/27 03:42:57;;;;;;;22.88;3.15;;;3.60;99.90;;;6.93;100.00;102337.81;5012871;28;20029;-77
2024/01/27 03:45:23;;;;;;;24.65;4.30;;;3.50;99.90;;;6.72;100.00;102342.50;5030825;28;20095;-77
2024/01/27 03:47:49;;;;;;;19.48;3.13;;;3.60;99.90;;;7.11;100.00;102344.16;5030941;28;20481;-78
2024/01/27 03:50:14;;;;;;;18.70;2.83;;;3.60;99.90;;;6.78;100.00;102353.75;5013922;28;20049;-77
2024/01/27 03:52:41;;;;;;;20.25;3.42;;;3.60;99.90;;;6.82;100.00;102350.59;5030860;28;20548;-76
2024/01/27 03:55:07;;;;;;;25.40;5.00;;;3.60;99.90;;;6.91;100.00;102338.81;5030625;28;20037;-76
2024/01/27 03:57:33;;;;;;;17.48;2.97;;;3.60;99.90;;;7.01;100.00;102341.47;5030188;28;20037;-76
2024/01/27 03:59:59;;;;;;;14.20;2.78;;;3.50;99.90;;;6.66;100.00;102343.09;5046413;28;20034;-77
2024/01/27 04:02:24;;;;;;;20.33;3.25;;;3.50;99.90;;;6.47;100.00;102355.72;5011908;28;20068;-77
2024/01/27 04:04:50;;;;;;;19.30;2.80;;;3.50;99.90;;;6.80;100.00;102357.16;5013358;28;20393;-77
2024/01/27 04:07:16;;;;;;;22.35;3.28;;;3.50;99.90;;;6.80;100.00;102354.44;5030840;28;20041;-77
2024/01/27 04:09:42;;;;;;;15.73;2.40;;;3.50;99.90;;;6.67;100.00;102360.22;5030677;28;20045;-77
2024/01/27 04:12:07;;;;;;;19.33;2.85;;;3.50;99.90;;;6.99;100.00;102348.91;5030265;28;20118;-78
2024/01/27 04:14:33;;;;;;;25.08;3.30;;;3.50;99.90;;;6.83;100.00;102360.44;5029587;28;20040;-78
2024/01/27 04:16:59;;;;;;;16.48;2.92;;;3.40;99.90;;;6.81;100.00;102362.44;5031192;28;20368;-77
2024/01/27 04:19:25;;;;;;;16.20;2.80;;;3.40;99.90;;;6.83;100.00;102356.84;5030395;28;20717;-78
2024/01/27 04:21:50;;;;;;;15.55;2.75;;;3.40;99.90;;;6.81;100.00;102372.44;5029283;28;20120;-76
2024/01/27 04:24:16;;;;;;;22.70;3.28;;;3.40;99.90;;;7.05;100.00;102353.75;5031145;28;20033;-78
2024/01/27 04:26:42;;;;;;;20.13;3.22;;;3.40;99.90;;;6.26;100.00;102369.47;5046248;28;20045;-77
2024/01/27 04:29:08;;;;;;;20.55;3.15;;;3.40;99.90;;;6.73;100.00;102374.03;5029520;28;20033;-77
2024/01/27 04:31:34;;;;;;;17.92;3.20;;;3.40;99.90;;;6.89;100.00;102373.38;5030320;28;20068;-77
2024/01/27 04:34:00;;;;;;;21.30;2.88;;;3.30;99.90;;;6.89;100.00;102361.66;5030152;28;20060;-77
2024/01/27 04:36:29;;;;;;;20.50;3.10;;;3.30;99.90;;;6.79;100.00;102363.59;5030104;28;20029;-77
2024/01/27 04:38:55;;;;;;;14.82;2.35;;;3.40;99.90;;;6.95;100.00;102363.81;5028913;28;20029;-78
2024/01/27 04:41:21;;;;;;;17.98;2.58;;;3.30;99.90;;;6.64;100.00;102377.66;5030277;28;20036;-77
2024/01/27 04:43:46;;;;;;;19.50;3.15;;;3.30;99.90;;;6.85;100.00;102379.25;5044969;28;20057;-77
2024/01/27 04:46:12;;;;;;;15.50;3.78;;;3.30;99.90;;;6.53;100.00;102377.81;5029158;28;20116;-77
2024/01/27 04:48:38;;;;;;;16.80;2.97;;;3.30;99.90;;;6.46;100.00;102386.53;5029462;28;20046;-78
2024/01/27 04:51:03;;;;;;;13.25;2.65;;;3.30;99.90;;;6.87;100.00;102377.25;5030060;28;20104;-77
2024/01/27 04:53:29;;;;;;;20.80;3.00;;;3.30;99.90;;;6.90;100.00;102399.50;5029196;28;20069;-77
2024/01/27 04:55:55;;;;;;;16.20;2.70;;;3.20;99.90;;;7.01;100.00;102393.03;5029766;28;20037;-77
2024/01/27 04:58:21;;;;;;;21.70;3.40;;;3.20;99.90;;;6.53;100.00;102388.66;5029877;28;20083;-76
2024/01/27 05:00:46;;;;;;;14.63;2.88;;;3.10;99.90;;;6.76;100.00;102392.72;5044521;28;20068;-79
2024/01/27 05:03:14;;;;;;;22.52;3.05;;;3.10;99.90;;;6.39;100.00;102400.81;5027795;28;20045;-77
2024/01/27 05:05:43;;;;;;;18.23;2.58;;;3.20;99.90;;;6.69;100.00;102393.47;4995131;28;20056;-78
2024/01/27 05:08:09;;;;;;;19.10;3.22;;;3.10;99.90;;;6.93;100.00;102405.66;5027018;28;20034;-77
2024/01/27 05:10:36;;;;;;;14.75;2.60;;;3.10;99.90;;;6.59;100.00;102415.19;5027129;28;20049;-78
2024/01/27 05:13:02;;;;;;;20.58;3.63;;;3.10;99.90;;;6.65;100.00;102406.47;5027723;28;20060;-78
2024/01/27 05:15:28;;;;;;;19.02;2.75;;;3.10;99.90;;;6.70;100.00;102400.59;5025561;28;20123;-78
2024/01/27 05:17:54;;;;;;;18.35;4.15;;;3.00;99.90;;;6.28;100.00;102400.00;5039734;28;20036;-77
2024/01/27 05:20:19;;;;;;;22.30;3.17;;;3.00;99.90;;;6.55;100.00;102419.19;5024107;28;20401;-77
2024/01/27 05:22:46;;;;;;;21.13;3.38;;;3.10;99.90;;;6.61;100.00;102415.88;5009336;28;20047;-77
2024/01/27 05:25:12;;;;;;;20.67;2.92;;;3.10;99.90;;;6.53;100.00;102427.50;5026916;28;20056;-77
2024/01/27 05:27:38;;;;;;;21.35;3.13;;;3.10;99.90;;;6.30;100.00;102426.94;5038628;28;20034;-77
2024/01/27 05:30:08;;;;;;;15.55;2.83;;;3.00;99.90;;;6.53;100.00;102418.50;5008709;28;20053;-77
2024/01/27 05:32:34;;;;;;;14.88;2.72;;;3.00;99.90;;;6.60;100.00;102423.19;5007413;28;20497;-77
2024/01/27 05:35:00;;;;;;;23.63;3.05;;;3.00;99.90;;;6.62;100.00;102421.19;5033476;28;20082;-77
2024/01/27 05:37:25;;;;;;;17.88;3.53;;;3.00;99.90;;;6.58;100.00;102421.59;5037407;28;20036;-77
2024/01/27 05:39:51;;;;;;;21.00;3.00;;;2.90;99.90;;;6.53;100.00;102427.50;5036226;28;20522;-77
2024/01/27 05:42:17;;;;;;;18.35;2.70;;;3.00;99.90;;;6.50;100.00;102421.50;5033047;28;20040;-78
2024/01/27 05:44:42;;;;;;;12.98;2.67;;;3.00;99.90;;;6.70;100.00;102420.44;5029772;28;20033;-76
2024/01/27 05:47:10;;;;;;;12.60;2.65;;;3.00;99.90;;;6.99;100.00;102427.63;5018118;28;20049;-77
2024/01/27 05:49:36;;;;;;;18.95;2.60;;;2.90;99.90;;;6.94;100.00;102429.06;5016449;28;20045;-77
2024/01/27 05:52:03;;;;;;;13.38;2.67;;;2.80;99.90;;;6.84;100.00;102438.09;5029037;28;20037;-76
2024/01/27 05:54:28;;;;;;;18.92;3.10;;;2.90;99.90;;;6.86;100.00;102443.38;5029316;28;20331;-78
2024/01/27 05:56:54;;;;;;;18.25;2.78;;;2.90;99.90;;;6.94;100.00;102442.63;5036024;28;20047;-77
2024/01/27 05:59:21;;;;;;;24.13;3.60;;;2.90;99.90;;;7.04;100.00;102428.03;5028139;28;20108;-76
2024/01/27 06:01:47;;;;;;;18.48;2.55;;;2.90;99.90;;;7.00;100.00;102442.91;5034055;28;20037;-76
2024/01/27 06:04:12;;;;;;;16.98;2.95;;;2.80;99.90;;;6.77;100.00;102442.41;5033282;28;20168;-75
2024/01/27 06:06:39;;;;;;;18.33;2.78;;;2.80;99.90;;;6.87;100.00;102454.09;5032505;28;20037;-75
2024/01/27 06:09:05;;;;;;;26.58;3.38;;;2.80;99.90;;;6.78;100.00;102462.25;5015637;28;20052;-75
2024/01/27 06:11:31;;;;;;;27.55;3.10;;;2.80;99.90;;;6.80;100.00;102457.53;5035807;28;20116;-75
2024/01/27 06:13:58;;;;;;;27.17;3.25;;;2.80;99.90;;;6.83;100.00;102457.22;5033917;28;20086;-76
2024/01/27 06:16:24;;;;;;;18.77;2.65;;;2.80;99.90;;;6.80;100.00;102452.97;5032753;28;20049;-76
2024/01/27 06:18:50;;;;;;;11.55;2.45;;;2.80;99.90;;;6.94;100.00;102454.34;5016334;28;20037;-77
2024/01/27 06:21:15;;;;;;;17.60;2.67;;;2.70;99.90;;;6.91;100.00;102454.66;5029695;28;20150;-77
2024/01/27 06:23:41;;;;;;;13.48;2.78;;;2.70;99.90;;;6.63;100.00;102451.88;5043326;28;20052;-76
2024/01/27 06:26:08;;;;;;;21.10;3.25;;;2.70;99.90;;;6.83;100.00;102451.81;5037401;28;20041;-76
2024/01/27 06:28:34;;;;;;;15.57;2.57;;;2.70;99.90;;;6.83;100.00;102463.53;5029604;28;20068;-75
2024/01/27 06:31:04;;;;;;;13.50;2.80;;;2.80;99.90;;;6.88;100.00;102468.50;5004876;28;20037;-76
2024/01/27 06:33:31;;;;;;;12.35;2.45;;;2.90;99.90;;;6.44;100.00;102464.47;5024830;28;20605;-76
2024/01/27 06:35:57;;;;;;;11.57;2.70;;;2.80;99.90;;;6.85;100.00;102471.50;5025897;28;20045;-76
2024/01/27 06:38:23;;;;;;;14.07;2.33;;;2.80;99.90;;;6.94;100.00;102467.91;5025729;28;20045;-76
2024/01/27 06:40:48;;;;;;;19.95;3.33;;;2.60;99.90;;;6.68;100.00;102471.28;5041160;28;20167;-76
2024/01/27 06:43:14;;;;;;;18.48;3.38;;;2.60;99.90;;;6.42;100.00;102471.03;5031928;28;20186;-76
2024/01/27 06:45:40;;;;;;;19.65;2.80;;;2.50;99.90;;;6.31;100.00;102475.59;5034926;28;20040;-76
2024/01/27 06:48:06;;;;;;;20.08;3.22;;;2.50;99.90;;;6.32;100.00;102481.88;5033370;28;20040;-75
2024/01/27 06:50:35;;;;;;;16.75;3.22;;;2.40;99.90;;;6.34;100.00;102490.72;5013260;28;20041;-76
2024/01/27 06:53:01;;;;;;;14.57;2.78;;;2.40;99.90;;;6.10;100.00;102486.59;5022229;28;20060;-77
2024/01/27 06:55:27;;;;;;;15.23;3.17;;;2.30;99.90;;;6.01;100.00;102488.31;5049184;28;20053;-77
2024/01/27 06:57:53;;;;;;;15.93;3.83;;;2.30;99.90;;;5.86;100.00;102495.09;5033318;28;20503;-76
2024/01/27 07:00:20;;;;;;;22.75;3.60;;;2.30;99.90;;;5.90;100.00;102500.09;5014939;28;20042;-76
2024/01/27 07:02:46;;;;;;;17.95;3.85;;;2.30;99.90;;;6.02;100.00;102505.41;5052469;28;20064;-76
2024/01/27 07:05:14;;;;;;;17.75;3.65;;;2.30;99.90;;;5.82;100.00;102496.38;5032458;28;20434;-76
2024/01/27 07:07:41;;;;;;;14.13;3.05;;;2.20;99.90;;;5.79;100.00;102502.06;5037308;28;20397;-76
2024/01/27 07:10:07;;;;;;;20.35;3.97;;;2.20;99.90;;;5.61;100.00;102509.03;5023286;28;20492;-76
2024/01/27 07:12:34;;;;;;;23.38;4.35;;;2.20;99.90;;;5.70;100.00;102503.75;5038653;28;20038;-76
2024/01/27 07:15:00;;;;;;;16.73;3.83;;;2.20;99.90;;;5.74;100.00;102499.78;5030177;28;20041;-75
2024/01/27 07:17:29;;;;;;;27.08;5.18;;;2.10;99.90;;;5.82;100.00;102496.38;5023231;28;20037;-76
2024/01/27 07:19:55;;;;;;;18.45;3.95;;;2.10;99.90;;;5.60;100.00;102496.47;5030255;28;20401;-75
2024/01/27 07:22:22;;;;;;;21.15;4.50;;;2.10;99.90;;;5.58;100.00;102508.44;5031631;28;20124;-75
2024/01/27 07:24:51;;;;;;;20.80;4.57;;;2.00;99.90;;;5.24;100.00;102500.63;5031802;28;20033;-75
2024/01/27 07:27:16;;;;;;;20.70;3.80;;;2.00;99.90;;;5.52;100.00;102504.41;5030862;28;20293;-75
2024/01/27 07:29:42;;;;;;;17.92;3.72;;;2.00;99.90;;;5.48;100.00;102513.81;5031111;28;20389;-75
2024/01/27 07:32:13;;;;;;;19.83;4.53;;;2.10;99.90;;;5.59;100.00;102513.72;5030918;28;20438;-75
2024/01/27 07:34:42;;;;;;;21.23;4.10;;;2.10;99.90;;;5.89;100.00;102511.94;5030395;28;20431;-75
2024/01/27 07:37:08;;;;;;;18.30;4.38;;;2.10;99.90;;;5.65;100.00;102508.75;5007409;28;20026;-75
2024/01/27 07:39:34;;;;;;;16.63;3.83;;;2.10;99.90;;;5.69;100.00;102518.28;5030629;28;20048;-76
2024/01/27 07:42:00;;;;;;;22.30;4.40;;;2.10;99.90;;;5.93;100.00;102527.91;5031387;28;20445;-75
2024/01/27 07:44:25;;;;;;;15.10;3.67;;;2.10;99.90;;;5.54;100.00;102529.50;5031372;28;20570;-75
2024/01/27 07:46:51;;;;;;;24.13;5.50;;;2.10;99.90;;;5.83;100.00;102536.84;5013359;28;20432;-76
2024/01/27 07:49:18;;;;;;;17.83;4.15;;;2.20;99.90;;;6.10;100.00;102540.81;5031151;28;20118;-76
2024/01/27 07:51:44;;;;;;;19.42;3.72;;;2.30;99.90;;;5.81;100.00;102536.13;5030771;28;20096;-75
2024/01/27 07:54:10;;;;;;;19.08;4.30;;;2.30;99.90;;;5.86;100.00;102544.72;5031224;28;20033;-78
2024/01/27 07:56:35;;;;;;;24.48;4.45;;;2.30;99.90;;;5.70;100.00;102547.97;5031034;28;20041;-78
2024/01/27 07:59:01;;;;;;;15.30;3.83;;;2.40;99.90;;;6.02;100.00;102535.22;5030727;28;20473;-78
2024/01/27 08:01:27;;;;;;;19.70;5.22;;;2.40;99.90;;;5.86;100.00;102542.00;5026830;28;20405;-78
2024/01/27 08:03:52;;;;;;;15.25;4.05;;;2.50;99.90;;;5.94;100.00;102548.56;5030320;28;20480;-78
2024/01/27 08:06:29;;;;;;;18.10;4.85;;;2.50;99.90;;;6.05;100.00;102537.63;5031038;28;20039;-78
2024/01/27 08:08:55;;;;;;;17.65;5.15;;;2.50;99.90;;;5.82;100.00;102540.56;5031352;28;20095;-78
2024/01/27 08:11:20;;;;;;;16.90;5.45;;;2.60;99.90;;;5.94;100.00;102551.28;5010718;28;20033;-78
2024/01/27 08:13:46;;;;;;;19.65;4.43;;;2.70;99.90;;;6.26;100.00;102556.50;5030353;28;20465;-77
2024/01/27 08:16:13;;;;;;;15.57;4.68;;;2.70;99.90;;;6.12;100.00;102544.22;5046168;28;20040;-77
2024/01/27 08:18:42;;;;;;;16.75;4.35;;;2.80;99.90;;;6.34;100.00;102561.19;5031235;28;20094;-77
2024/01/27 08:21:08;;;;;;;21.83;5.47;;;2.80;99.90;;;6.36;100.00;102564.63;5045848;28;20041;-77
2024/01/27 08:23:34;;;;;;;26.48;4.40;;;2.90;99.90;;;6.31;100.00;102559.66;5031579;28;20048;-81
2024/01/27 08:26:00;;;;;;;14.38;4.63;;;2.90;99.90;;;6.38;100.00;102562.66;5011222;28;20041;-81
2024/01/27 08:28:26;;;;;;;16.00;4.18;;;3.00;99.90;;;6.57;100.00;102555.50;5026877;28;20471;-79
2024/01/27 08:30:51;;;;;;;16.30;3.88;;;3.10;99.90;;;6.55;100.00;102555.66;5032061;28;20037;-80
2024/01/27 08:33:17;;;;;;;22.08;4.78;;;3.20;99.90;;;6.50;100.00;102548.94;5031292;28;20053;-78
2024/01/27 08:35:46;;;;;;;18.88;4.30;;;3.30;99.90;;;6.75;100.00;102545.63;5027316;28;20037;-77
2024/01/27 08:38:12;;;;;;;23.55;4.93;;;3.30;99.90;;;6.83;100.00;102557.63;5030757;28;20040;-79
2024/01/27 08:40:38;;;;;;;15.05;4.65;;;3.30;99.90;;;6.80;100.00;102564.22;5014166;28;20029;-78
2024/01/27 08:43:03;;;;;;;20.75;5.22;;;3.50;99.90;;;6.92;100.00;102554.06;5030519;28;20037;-77
2024/01/27 08:45:29;;;;;;;17.20;3.92;;;3.60;99.90;;;6.86;100.00;102560.03;5045620;28;20037;-77
2024/01/27 08:47:55;;;;;;;24.45;5.18;;;3.60;99.90;;;6.89;100.00;102571.47;5044661;28;20033;-79
2024/01/27 08:50:21;;;;;;;20.48;4.60;;;3.80;99.90;;;7.17;100.00;102568.84;5044423;28;20555;-78
2024/01/27 08:52:47;;;;;;;19.70;4.85;;;3.80;99.90;;;7.38;100.00;102575.06;5029176;28;20091;-78
2024/01/27 08:55:13;;;;;;;17.00;4.28;;;3.90;99.90;;;6.89;100.00;102555.19;5044300;28;20481;-78
2024/01/27 08:57:38;;;;;;;21.52;4.97;;;4.00;99.90;;;7.29;100.00;102577.66;5027528;28;20045;-78
2024/01/27 09:00:05;;;;;;;21.10;5.20;;;4.10;99.90;;;7.75;100.00;102577.75;5028778;28;20036;-78
2024/01/27 09:02:31;;;;;;;18.20;4.32;;;4.20;99.90;;;7.71;100.00;102584.50;5029431;28;20054;-77
2024/01/27 09:04:56;;;;;;;15.65;4.80;;;4.20;99.90;;;7.55;100.00;102587.00;5028997;28;20103;-78
2024/01/27 09:07:23;;;;;;;16.70;5.30;;;4.30;99.90;;;7.66;100.00;102597.69;5015331;28;20040;-78
2024/01/27 09:09:49;;;;;;;19.95;5.32;;;4.40;99.90;;;8.10;100.00;102586.16;5007526;28;20037;-79
2024/01/27 09:12:15;;;;;;;16.63;4.93;;;4.50;99.90;;;8.10;100.00;102590.75;5010863;28;20060;-77
2024/01/27 09:14:40;;;;;;;18.13;4.47;;;4.50;99.90;;;8.41;100.00;102583.06;5030589;28;20040;-78
2024/01/27 09:17:06;;;;;;;16.60;5.03;;;4.70;99.90;;;8.35;100.00;102589.13;5013312;28;20029;-79
2024/01/27 09:19:32;;;;;;;19.58;5.38;;;4.80;99.90;;;8.54;100.00;102587.31;5024674;28;20037;-78
2024/01/27 09:21:58;;;;;;;16.83;4.82;;;4.90;99.90;;;8.24;100.00;102597.53;5029439;28;20060;-79
2024/01/27 09:24:23;;;;;;;24.38;5.63;;;4.90;99.90;;;8.13;100.00;102599.44;5024551;28;20049;-79
2024/01/27 09:26:49;;;;;;;16.75;5.07;;;4.90;99.90;;;8.58;100.00;102599.59;5016954;28;20036;-79
2024/01/27 09:29:15;;;;;;;16.25;4.75;;;5.00;99.90;;;8.34;100.00;102609.19;5033026;28;20037;-79
2024/01/27 09:31:40;;;;;;;14.70;4.93;;;5.00;99.90;;;9.17;100.00;102593.59;5034874;28;20029;-79
2024/01/27 09:34:06;;;;;;;21.10;5.53;;;5.20;99.90;;;8.60;100.00;102598.41;5032525;28;20452;-78
2024/01/27 09:36:32;;;;;;;19.80;5.32;;;5.30;99.90;;;8.82;100.00;102600.81;5035324;28;20041;-79
2024/01/27 09:38:59;;;;;;;19.10;6.30;;;5.30;99.90;;;8.74;100.00;102597.00;5035246;28;20041;-78
2024/01/27 09:41:30;;;;;;;13.90;4.55;;;5.40;99.90;;;9.09;100.00;102604.44;5034847;28;20109;-78
2024/01/27 09:44:00;;;;;;;16.92;4.70;;;;;;;9.37;99.51;102601.53;5032075;28;20134;-78
2024/01/27 09:46:27;;;;;;;19.95;5.13;;;;;;;9.59;97.67;102597.41;5030277;28;20054;-79
2024/01/27 09:48:53;;;;;;;19.42;4.97;;;5.70;99.90;;;9.56;95.13;102601.31;5036232;28;20496;-78
2024/01/27 09:51:19;;;;;;;12.95;4.68;;;;;;;10.20;93.40;102598.16;5034089;28;20045;-78
2024/01/27 09:53:45;;;;;;;18.67;5.13;;;6.00;99.90;;;9.97;91.24;102595.19;5034543;28;20095;-79
2024/01/27 09:56:17;;;;;;;12.93;4.53;;;7.00;99.90;;;10.55;88.22;102605.41;5036043;28;20056;-79
2024/01/27 09:58:44;;;;;;;19.42;5.22;;;;;;;10.78;85.50;102594.69;5033587;28;20048;-79
2024/01/27 10:01:12;;;;;;;14.20;4.65;;;;;;;10.94;85.13;102602.00;5010873;28;20040;-78
2024/01/27 10:03:41;;;;;;;19.67;5.60;;;;;;;11.52;81.77;102589.06;5047337;28;20548;-77
2024/01/27 10:06:11;;;;;;;18.35;4.85;;;;;;;13.15;74.17;102577.44;5013583;28;20286;-76
2024/01/27 10:08:37;;;;;;;17.35;4.40;;;9.50;99.90;;;14.34;63.17;102542.69;5024749;28;20440;-76
2024/01/27 10:11:08;;;;;;;12.05;4.38;;;;;;;14.60;59.29;102529.41;5042124;28;20029;-78